sensor_id;sensor_type;location;lat;lon;timestamp;P1;durP1;ratioP1;P2;durP2;ratioP2
23181;SDS011;11759;51.282;6.642;2023-03-01T00:01:28;22.70;;;10.95;;
23181;SDS011;11759;51.282;6.642;2023-03-01T00:03:56;24.65;;;10.95;;
23181;SDS011;11759;51.282;6.642;2023-03-01T00:06:23;23.70;;;10.73;;
23181;SDS011;11759;51.282;6.642;2023-03-01T00:08:53;21.35;;;11.85;;
23181;SDS011;11759;51.282;6.642;2023-03-01T00:11:27;25.35;;;11.50;;
23181;SDS011;11759;51.282;6.642;2023-03-01T00:13:55;21.58;;;11.98;;
23181;SDS011;11759;51.282;6.642;2023-03-01T00:16:27;19.55;;;11.07;;
23181;SDS011;11759;51.282;6.642;2023-03-01T00:18:56;27.17;;;11.70;;
23181;SDS011;11759;51.282;6.642;2023-03-01T00:21:23;22.77;;;11.73;;
23181;SDS011;11759;51.282;6.642;2023-03-01T00:23:50;22.30;;;11.43;;
23181;SDS011;11759;51.282;6.642;2023-03-01T00:26:18;24.17;;;11.52;;
23181;SDS011;11759;51.282;6.642;2023-03-01T00:28:46;22.20;;;12.00;;
23181;SDS011;11759;51.282;6.642;2023-03-01T00:31:17;22.98;;;12.10;;
23181;SDS011;11759;51.282;6.642;2023-03-01T00:33:45;25.90;;;11.57;;
23181;SDS011;11759;51.282;6.642;2023-03-01T00:36:13;22.45;;;10.65;;
23181;SDS011;11759;51.282;6.642;2023-03-01T00:41:11;25.95;;;11.55;;
23181;SDS011;11759;51.282;6.642;2023-03-01T00:43:40;27.17;;;11.40;;
23181;SDS011;11759;51.282;6.642;2023-03-01T00:46:09;21.20;;;11.18;;
23181;SDS011;11759;51.282;6.642;2023-03-01T00:48:41;21.80;;;12.00;;
23181;SDS011;11759;51.282;6.642;2023-03-01T00:51:12;22.80;;;11.77;;
23181;SDS011;11759;51.282;6.642;2023-03-01T00:53:46;18.02;;;11.15;;
23181;SDS011;11759;51.282;6.642;2023-03-01T00:56:14;21.38;;;11.68;;
23181;SDS011;11759;51.282;6.642;2023-03-01T00:58:42;20.23;;;11.55;;
23181;SDS011;11759;51.282;6.642;2023-03-01T01:01:10;22.17;;;11.82;;
23181;SDS011;11759;51.282;6.642;2023-03-01T01:03:53;25.33;;;12.10;;
23181;SDS011;11759;51.282;6.642;2023-03-01T01:06:45;21.83;;;11.82;;
23181;SDS011;11759;51.282;6.642;2023-03-01T01:09:13;24.90;;;12.15;;
23181;SDS011;11759;51.282;6.642;2023-03-01T01:11:45;19.58;;;11.45;;
23181;SDS011;11759;51.282;6.642;2023-03-01T01:14:14;24.15;;;12.38;;
23181;SDS011;11759;51.282;6.642;2023-03-01T01:16:41;21.95;;;11.18;;
23181;SDS011;11759;51.282;6.642;2023-03-01T01:19:09;25.15;;;13.52;;
23181;SDS011;11759;51.282;6.642;2023-03-01T01:21:37;22.58;;;12.80;;
23181;SDS011;11759;51.282;6.642;2023-03-01T01:24:04;23.38;;;12.48;;
23181;SDS011;11759;51.282;6.642;2023-03-01T01:30:10;24.50;;;12.18;;
23181;SDS011;11759;51.282;6.642;2023-03-01T01:32:37;24.25;;;12.73;;
23181;SDS011;11759;51.282;6.642;2023-03-01T01:35:03;24.40;;;13.57;;
23181;SDS011;11759;51.282;6.642;2023-03-01T01:37:30;25.17;;;12.93;;
23181;SDS011;11759;51.282;6.642;2023-03-01T01:39:59;22.98;;;12.20;;
23181;SDS011;11759;51.282;6.642;2023-03-01T01:42:33;31.02;;;14.85;;
23181;SDS011;11759;51.282;6.642;2023-03-01T01:48:00;23.90;;;13.27;;
23181;SDS011;11759;51.282;6.642;2023-03-01T01:50:31;23.63;;;13.65;;
23181;SDS011;11759;51.282;6.642;2023-03-01T01:53:05;27.33;;;12.95;;
23181;SDS011;11759;51.282;6.642;2023-03-01T01:55:36;25.05;;;13.88;;
23181;SDS011;11759;51.282;6.642;2023-03-01T01:58:04;27.42;;;14.23;;
23181;SDS011;11759;51.282;6.642;2023-03-01T02:00:32;29.88;;;13.68;;
23181;SDS011;11759;51.282;6.642;2023-03-01T02:03:08;27.50;;;14.40;;
23181;SDS011;11759;51.282;6.642;2023-03-01T02:08:21;25.10;;;13.98;;
23181;SDS011;11759;51.282;6.642;2023-03-01T02:10:52;28.45;;;14.10;;
23181;SDS011;11759;51.282;6.642;2023-03-01T02:13:22;26.52;;;14.27;;
23181;SDS011;11759;51.282;6.642;2023-03-01T02:15:49;28.13;;;15.13;;
23181;SDS011;11759;51.282;6.642;2023-03-01T02:18:17;26.83;;;13.45;;
23181;SDS011;11759;51.282;6.642;2023-03-01T02:23:21;26.02;;;13.98;;
23181;SDS011;11759;51.282;6.642;2023-03-01T02:28:22;25.55;;;13.80;;
23181;SDS011;11759;51.282;6.642;2023-03-01T02:30:53;25.90;;;14.20;;
23181;SDS011;11759;51.282;6.642;2023-03-01T02:33:39;29.42;;;14.82;;
23181;SDS011;11759;51.282;6.642;2023-03-01T02:36:13;26.33;;;11.75;;
23181;SDS011;11759;51.282;6.642;2023-03-01T02:38:42;27.02;;;13.52;;
23181;SDS011;11759;51.282;6.642;2023-03-01T02:41:10;30.00;;;14.82;;
23181;SDS011;11759;51.282;6.642;2023-03-01T02:43:38;22.02;;;12.98;;
23181;SDS011;11759;51.282;6.642;2023-03-01T02:46:06;26.70;;;13.98;;
23181;SDS011;11759;51.282;6.642;2023-03-01T02:48:51;24.25;;;13.63;;
23181;SDS011;11759;51.282;6.642;2023-03-01T02:54:13;23.02;;;14.02;;
23181;SDS011;11759;51.282;6.642;2023-03-01T02:56:41;20.85;;;10.73;;
23181;SDS011;11759;51.282;6.642;2023-03-01T02:59:09;29.13;;;13.82;;
23181;SDS011;11759;51.282;6.642;2023-03-01T03:01:36;27.48;;;14.30;;
23181;SDS011;11759;51.282;6.642;2023-03-01T03:04:06;26.15;;;13.35;;
23181;SDS011;11759;51.282;6.642;2023-03-01T03:06:34;27.10;;;13.80;;
23181;SDS011;11759;51.282;6.642;2023-03-01T03:09:01;29.05;;;14.40;;
23181;SDS011;11759;51.282;6.642;2023-03-01T03:11:29;26.70;;;14.32;;
23181;SDS011;11759;51.282;6.642;2023-03-01T03:13:56;29.17;;;14.80;;
23181;SDS011;11759;51.282;6.642;2023-03-01T03:16:24;23.25;;;13.27;;
23181;SDS011;11759;51.282;6.642;2023-03-01T03:18:50;31.50;;;14.82;;
23181;SDS011;11759;51.282;6.642;2023-03-01T03:21:17;24.65;;;13.98;;
23181;SDS011;11759;51.282;6.642;2023-03-01T03:23:44;25.30;;;13.63;;
23181;SDS011;11759;51.282;6.642;2023-03-01T03:26:10;27.55;;;14.32;;
23181;SDS011;11759;51.282;6.642;2023-03-01T03:28:39;29.90;;;15.52;;
23181;SDS011;11759;51.282;6.642;2023-03-01T03:31:06;26.98;;;14.60;;
23181;SDS011;11759;51.282;6.642;2023-03-01T03:33:33;27.15;;;14.32;;
23181;SDS011;11759;51.282;6.642;2023-03-01T03:36:00;26.00;;;14.57;;
23181;SDS011;11759;51.282;6.642;2023-03-01T03:38:27;25.00;;;15.00;;
23181;SDS011;11759;51.282;6.642;2023-03-01T03:43:30;25.30;;;14.23;;
23181;SDS011;11759;51.282;6.642;2023-03-01T03:45:58;27.30;;;13.90;;
23181;SDS011;11759;51.282;6.642;2023-03-01T03:48:25;31.20;;;14.82;;
23181;SDS011;11759;51.282;6.642;2023-03-01T03:50:53;36.80;;;15.82;;
23181;SDS011;11759;51.282;6.642;2023-03-01T03:53:21;31.63;;;14.85;;
23181;SDS011;11759;51.282;6.642;2023-03-01T03:55:49;31.88;;;14.82;;
23181;SDS011;11759;51.282;6.642;2023-03-01T03:58:16;28.80;;;15.25;;
23181;SDS011;11759;51.282;6.642;2023-03-01T04:00:47;29.38;;;15.20;;
23181;SDS011;11759;51.282;6.642;2023-03-01T04:03:15;31.27;;;14.60;;
23181;SDS011;11759;51.282;6.642;2023-03-01T04:05:43;28.20;;;15.30;;
23181;SDS011;11759;51.282;6.642;2023-03-01T04:08:09;31.92;;;14.90;;
23181;SDS011;11759;51.282;6.642;2023-03-01T04:10:37;27.92;;;15.77;;
23181;SDS011;11759;51.282;6.642;2023-03-01T04:13:05;32.13;;;16.42;;
23181;SDS011;11759;51.282;6.642;2023-03-01T04:15:33;27.83;;;15.57;;
23181;SDS011;11759;51.282;6.642;2023-03-01T04:18:00;31.42;;;15.43;;
23181;SDS011;11759;51.282;6.642;2023-03-01T04:20:28;26.25;;;15.57;;
23181;SDS011;11759;51.282;6.642;2023-03-01T04:22:59;28.13;;;16.15;;
23181;SDS011;11759;51.282;6.642;2023-03-01T04:25:37;27.75;;;15.20;;
23181;SDS011;11759;51.282;6.642;2023-03-01T04:28:05;30.88;;;15.48;;
23181;SDS011;11759;51.282;6.642;2023-03-01T04:30:32;28.90;;;15.35;;
23181;SDS011;11759;51.282;6.642;2023-03-01T04:33:06;31.80;;;15.95;;
23181;SDS011;11759;51.282;6.642;2023-03-01T04:35:35;29.02;;;16.17;;
23181;SDS011;11759;51.282;6.642;2023-03-01T04:38:03;29.85;;;15.65;;
23181;SDS011;11759;51.282;6.642;2023-03-01T04:40:30;29.55;;;15.65;;
23181;SDS011;11759;51.282;6.642;2023-03-01T04:42:57;35.45;;;16.90;;
23181;SDS011;11759;51.282;6.642;2023-03-01T04:45:24;32.03;;;16.67;;
23181;SDS011;11759;51.282;6.642;2023-03-01T04:47:50;31.40;;;16.67;;
23181;SDS011;11759;51.282;6.642;2023-03-01T04:50:20;30.60;;;15.77;;
23181;SDS011;11759;51.282;6.642;2023-03-01T04:52:47;29.80;;;16.52;;
23181;SDS011;11759;51.282;6.642;2023-03-01T04:55:14;29.95;;;15.80;;
23181;SDS011;11759;51.282;6.642;2023-03-01T04:57:41;31.67;;;16.75;;
23181;SDS011;11759;51.282;6.642;2023-03-01T05:00:10;34.10;;;16.17;;
23181;SDS011;11759;51.282;6.642;2023-03-01T05:05:23;35.40;;;15.75;;
23181;SDS011;11759;51.282;6.642;2023-03-01T05:07:55;27.10;;;15.70;;
23181;SDS011;11759;51.282;6.642;2023-03-01T05:10:23;29.58;;;16.27;;
23181;SDS011;11759;51.282;6.642;2023-03-01T05:12:51;32.33;;;16.35;;
23181;SDS011;11759;51.282;6.642;2023-03-01T05:15:20;24.58;;;15.02;;
23181;SDS011;11759;51.282;6.642;2023-03-01T05:17:48;35.42;;;15.60;;
23181;SDS011;11759;51.282;6.642;2023-03-01T05:20:15;30.02;;;15.50;;
23181;SDS011;11759;51.282;6.642;2023-03-01T05:22:42;33.90;;;16.23;;
23181;SDS011;11759;51.282;6.642;2023-03-01T05:25:09;30.92;;;15.27;;
23181;SDS011;11759;51.282;6.642;2023-03-01T05:27:35;32.47;;;16.30;;
23181;SDS011;11759;51.282;6.642;2023-03-01T05:30:02;32.08;;;15.98;;
23181;SDS011;11759;51.282;6.642;2023-03-01T05:32:43;28.73;;;15.15;;
23181;SDS011;11759;51.282;6.642;2023-03-01T05:35:15;32.33;;;15.93;;
23181;SDS011;11759;51.282;6.642;2023-03-01T05:37:43;30.88;;;14.77;;
23181;SDS011;11759;51.282;6.642;2023-03-01T05:40:11;30.85;;;15.60;;
23181;SDS011;11759;51.282;6.642;2023-03-01T05:42:47;33.25;;;16.05;;
23181;SDS011;11759;51.282;6.642;2023-03-01T05:45:16;32.58;;;15.60;;
23181;SDS011;11759;51.282;6.642;2023-03-01T05:47:44;30.20;;;14.88;;
23181;SDS011;11759;51.282;6.642;2023-03-01T05:50:13;32.15;;;16.02;;
23181;SDS011;11759;51.282;6.642;2023-03-01T05:52:52;31.65;;;16.33;;
23181;SDS011;11759;51.282;6.642;2023-03-01T05:55:23;33.88;;;16.45;;
23181;SDS011;11759;51.282;6.642;2023-03-01T05:57:50;28.63;;;15.88;;
23181;SDS011;11759;51.282;6.642;2023-03-01T06:00:18;36.85;;;17.10;;
23181;SDS011;11759;51.282;6.642;2023-03-01T06:02:49;32.42;;;17.00;;
23181;SDS011;11759;51.282;6.642;2023-03-01T06:05:16;34.38;;;17.45;;
23181;SDS011;11759;51.282;6.642;2023-03-01T06:07:42;32.67;;;15.82;;
23181;SDS011;11759;51.282;6.642;2023-03-01T06:10:11;28.42;;;15.50;;
23181;SDS011;11759;51.282;6.642;2023-03-01T06:12:39;34.75;;;16.48;;
23181;SDS011;11759;51.282;6.642;2023-03-01T06:15:07;41.40;;;16.50;;
23181;SDS011;11759;51.282;6.642;2023-03-01T06:17:37;34.58;;;16.73;;
23181;SDS011;11759;51.282;6.642;2023-03-01T06:20:05;32.85;;;17.33;;
23181;SDS011;11759;51.282;6.642;2023-03-01T06:22:34;30.42;;;15.75;;
23181;SDS011;11759;51.282;6.642;2023-03-01T06:25:01;29.27;;;17.27;;
23181;SDS011;11759;51.282;6.642;2023-03-01T06:27:33;35.50;;;17.00;;
23181;SDS011;11759;51.282;6.642;2023-03-01T06:30:00;36.97;;;17.23;;
23181;SDS011;11759;51.282;6.642;2023-03-01T06:32:27;31.00;;;16.15;;
23181;SDS011;11759;51.282;6.642;2023-03-01T06:34:54;36.17;;;16.98;;
23181;SDS011;11759;51.282;6.642;2023-03-01T06:37:21;31.00;;;17.00;;
23181;SDS011;11759;51.282;6.642;2023-03-01T06:39:58;27.33;;;15.68;;
23181;SDS011;11759;51.282;6.642;2023-03-01T06:42:56;36.22;;;16.42;;
23181;SDS011;11759;51.282;6.642;2023-03-01T06:45:23;30.65;;;16.08;;
23181;SDS011;11759;51.282;6.642;2023-03-01T06:47:50;34.42;;;16.75;;
23181;SDS011;11759;51.282;6.642;2023-03-01T06:50:17;32.33;;;16.38;;
23181;SDS011;11759;51.282;6.642;2023-03-01T06:52:44;31.92;;;16.70;;
23181;SDS011;11759;51.282;6.642;2023-03-01T06:55:11;30.58;;;16.75;;
23181;SDS011;11759;51.282;6.642;2023-03-01T06:57:38;35.72;;;16.73;;
23181;SDS011;11759;51.282;6.642;2023-03-01T07:00:05;40.70;;;16.75;;
23181;SDS011;11759;51.282;6.642;2023-03-01T07:02:34;32.70;;;15.35;;
23181;SDS011;11759;51.282;6.642;2023-03-01T07:05:01;33.83;;;16.50;;
23181;SDS011;11759;51.282;6.642;2023-03-01T07:07:28;37.78;;;16.42;;
23181;SDS011;11759;51.282;6.642;2023-03-01T07:09:55;30.80;;;16.17;;
23181;SDS011;11759;51.282;6.642;2023-03-01T07:12:21;32.50;;;15.55;;
23181;SDS011;11759;51.282;6.642;2023-03-01T07:14:49;32.50;;;15.65;;
23181;SDS011;11759;51.282;6.642;2023-03-01T07:17:15;28.30;;;15.30;;
23181;SDS011;11759;51.282;6.642;2023-03-01T07:19:42;34.08;;;16.58;;
23181;SDS011;11759;51.282;6.642;2023-03-01T07:22:09;31.58;;;16.33;;
23181;SDS011;11759;51.282;6.642;2023-03-01T07:24:35;27.42;;;15.07;;
23181;SDS011;11759;51.282;6.642;2023-03-01T07:27:02;34.80;;;14.20;;
23181;SDS011;11759;51.282;6.642;2023-03-01T07:29:29;27.27;;;14.57;;
23181;SDS011;11759;51.282;6.642;2023-03-01T07:31:55;26.35;;;14.25;;
23181;SDS011;11759;51.282;6.642;2023-03-01T07:34:22;30.90;;;13.73;;
23181;SDS011;11759;51.282;6.642;2023-03-01T07:36:49;30.67;;;14.63;;
23181;SDS011;11759;51.282;6.642;2023-03-01T07:39:15;26.38;;;14.13;;
23181;SDS011;11759;51.282;6.642;2023-03-01T07:41:44;28.73;;;14.40;;
23181;SDS011;11759;51.282;6.642;2023-03-01T07:44:11;22.85;;;13.50;;
23181;SDS011;11759;51.282;6.642;2023-03-01T07:46:38;26.80;;;13.07;;
23181;SDS011;11759;51.282;6.642;2023-03-01T07:49:04;23.92;;;14.07;;
23181;SDS011;11759;51.282;6.642;2023-03-01T07:51:31;24.17;;;13.60;;
23181;SDS011;11759;51.282;6.642;2023-03-01T07:53:58;28.63;;;13.18;;
23181;SDS011;11759;51.282;6.642;2023-03-01T07:56:24;23.48;;;12.95;;
23181;SDS011;11759;51.282;6.642;2023-03-01T07:58:52;24.25;;;13.48;;
23181;SDS011;11759;51.282;6.642;2023-03-01T08:01:19;27.65;;;14.38;;
23181;SDS011;11759;51.282;6.642;2023-03-01T08:03:46;21.55;;;14.05;;
23181;SDS011;11759;51.282;6.642;2023-03-01T08:06:14;24.13;;;14.63;;
23181;SDS011;11759;51.282;6.642;2023-03-01T08:08:44;22.08;;;13.45;;
23181;SDS011;11759;51.282;6.642;2023-03-01T08:11:12;23.65;;;13.30;;
23181;SDS011;11759;51.282;6.642;2023-03-01T08:13:41;25.30;;;13.63;;
23181;SDS011;11759;51.282;6.642;2023-03-01T08:16:12;27.27;;;14.20;;
23181;SDS011;11759;51.282;6.642;2023-03-01T08:18:41;26.60;;;13.35;;
23181;SDS011;11759;51.282;6.642;2023-03-01T08:21:10;24.23;;;13.93;;
23181;SDS011;11759;51.282;6.642;2023-03-01T08:23:38;23.35;;;12.93;;
23181;SDS011;11759;51.282;6.642;2023-03-01T08:26:09;20.45;;;12.68;;
23181;SDS011;11759;51.282;6.642;2023-03-01T08:28:41;26.08;;;12.82;;
23181;SDS011;11759;51.282;6.642;2023-03-01T08:33:54;27.27;;;12.95;;
23181;SDS011;11759;51.282;6.642;2023-03-01T08:36:22;24.05;;;13.23;;
23181;SDS011;11759;51.282;6.642;2023-03-01T08:38:57;23.42;;;13.13;;
23181;SDS011;11759;51.282;6.642;2023-03-01T08:41:24;25.05;;;13.63;;
23181;SDS011;11759;51.282;6.642;2023-03-01T08:43:51;25.58;;;13.38;;
23181;SDS011;11759;51.282;6.642;2023-03-01T08:46:18;23.75;;;12.70;;
23181;SDS011;11759;51.282;6.642;2023-03-01T08:48:45;31.30;;;13.68;;
23181;SDS011;11759;51.282;6.642;2023-03-01T08:51:13;27.25;;;12.57;;
23181;SDS011;11759;51.282;6.642;2023-03-01T08:53:45;19.30;;;12.30;;
23181;SDS011;11759;51.282;6.642;2023-03-01T08:56:12;23.33;;;13.02;;
23181;SDS011;11759;51.282;6.642;2023-03-01T08:58:39;24.00;;;13.27;;
23181;SDS011;11759;51.282;6.642;2023-03-01T09:01:06;27.00;;;13.57;;
23181;SDS011;11759;51.282;6.642;2023-03-01T09:03:34;21.65;;;13.15;;
23181;SDS011;11759;51.282;6.642;2023-03-01T09:06:01;18.48;;;11.95;;
23181;SDS011;11759;51.282;6.642;2023-03-01T09:08:28;23.27;;;12.75;;
23181;SDS011;11759;51.282;6.642;2023-03-01T09:10:55;29.10;;;13.10;;
23181;SDS011;11759;51.282;6.642;2023-03-01T09:13:22;22.50;;;12.98;;
23181;SDS011;11759;51.282;6.642;2023-03-01T09:15:52;23.73;;;12.50;;
23181;SDS011;11759;51.282;6.642;2023-03-01T09:18:18;25.73;;;13.10;;
23181;SDS011;11759;51.282;6.642;2023-03-01T09:20:45;18.17;;;11.23;;
23181;SDS011;11759;51.282;6.642;2023-03-01T09:23:11;25.95;;;11.95;;
23181;SDS011;11759;51.282;6.642;2023-03-01T09:25:38;22.48;;;13.32;;
23181;SDS011;11759;51.282;6.642;2023-03-01T09:28:05;26.40;;;12.88;;
23181;SDS011;11759;51.282;6.642;2023-03-01T09:30:32;23.55;;;14.02;;
23181;SDS011;11759;51.282;6.642;2023-03-01T09:32:59;20.73;;;12.30;;
23181;SDS011;11759;51.282;6.642;2023-03-01T09:35:26;22.80;;;12.23;;
23181;SDS011;11759;51.282;6.642;2023-03-01T09:37:52;20.80;;;12.43;;
23181;SDS011;11759;51.282;6.642;2023-03-01T09:40:20;19.33;;;12.20;;
23181;SDS011;11759;51.282;6.642;2023-03-01T09:43:40;21.95;;;12.30;;
23181;SDS011;11759;51.282;6.642;2023-03-01T09:45:45;25.35;;;13.27;;
23181;SDS011;11759;51.282;6.642;2023-03-01T09:48:14;23.08;;;13.07;;
23181;SDS011;11759;51.282;6.642;2023-03-01T09:50:43;30.42;;;14.05;;
23181;SDS011;11759;51.282;6.642;2023-03-01T09:53:15;20.70;;;12.50;;
23181;SDS011;11759;51.282;6.642;2023-03-01T09:55:44;23.88;;;12.95;;
23181;SDS011;11759;51.282;6.642;2023-03-01T09:58:37;23.50;;;12.18;;
23181;SDS011;11759;51.282;6.642;2023-03-01T10:01:27;20.77;;;12.55;;
23181;SDS011;11759;51.282;6.642;2023-03-01T10:09:36;25.60;;;13.23;;
23181;SDS011;11759;51.282;6.642;2023-03-01T10:12:08;24.67;;;12.10;;
23181;SDS011;11759;51.282;6.642;2023-03-01T10:15:09;19.42;;;12.15;;
23181;SDS011;11759;51.282;6.642;2023-03-01T10:22:48;21.40;;;12.82;;
23181;SDS011;11759;51.282;6.642;2023-03-01T10:27:54;27.05;;;12.52;;
23181;SDS011;11759;51.282;6.642;2023-03-01T10:30:38;20.58;;;11.75;;
23181;SDS011;11759;51.282;6.642;2023-03-01T10:33:13;23.73;;;12.50;;
23181;SDS011;11759;51.282;6.642;2023-03-01T10:36:02;19.83;;;11.20;;
23181;SDS011;11759;51.282;6.642;2023-03-01T10:38:30;26.15;;;13.25;;
23181;SDS011;11759;51.282;6.642;2023-03-01T10:41:05;20.63;;;12.73;;
23181;SDS011;11759;51.282;6.642;2023-03-01T10:43:49;22.75;;;13.45;;
23181;SDS011;11759;51.282;6.642;2023-03-01T10:46:25;30.50;;;12.90;;
23181;SDS011;11759;51.282;6.642;2023-03-01T10:49:14;22.95;;;12.50;;
23181;SDS011;11759;51.282;6.642;2023-03-01T10:51:44;21.58;;;12.45;;
23181;SDS011;11759;51.282;6.642;2023-03-01T10:56:55;26.00;;;13.00;;
23181;SDS011;11759;51.282;6.642;2023-03-01T10:59:27;21.33;;;12.00;;
23181;SDS011;11759;51.282;6.642;2023-03-01T11:05:00;20.52;;;11.55;;
23181;SDS011;11759;51.282;6.642;2023-03-01T11:07:52;19.35;;;11.80;;
23181;SDS011;11759;51.282;6.642;2023-03-01T11:10:23;20.45;;;11.10;;
23181;SDS011;11759;51.282;6.642;2023-03-01T11:12:53;19.90;;;10.85;;
23181;SDS011;11759;51.282;6.642;2023-03-01T11:15:24;17.95;;;10.88;;
23181;SDS011;11759;51.282;6.642;2023-03-01T11:17:53;19.02;;;11.07;;
23181;SDS011;11759;51.282;6.642;2023-03-01T11:20:38;19.77;;;11.38;;
23181;SDS011;11759;51.282;6.642;2023-03-01T11:23:12;19.25;;;10.65;;
23181;SDS011;11759;51.282;6.642;2023-03-01T11:25:41;18.85;;;10.75;;
23181;SDS011;11759;51.282;6.642;2023-03-01T11:28:12;20.80;;;10.93;;
23181;SDS011;11759;51.282;6.642;2023-03-01T11:30:44;17.90;;;10.38;;
23181;SDS011;11759;51.282;6.642;2023-03-01T11:34:09;20.52;;;10.32;;
23181;SDS011;11759;51.282;6.642;2023-03-01T11:36:41;19.38;;;10.57;;
23181;SDS011;11759;51.282;6.642;2023-03-01T11:39:31;15.65;;;9.63;;
23181;SDS011;11759;51.282;6.642;2023-03-01T11:42:09;18.85;;;10.07;;
23181;SDS011;11759;51.282;6.642;2023-03-01T11:44:45;17.40;;;10.55;;
23181;SDS011;11759;51.282;6.642;2023-03-01T11:47:22;19.30;;;9.77;;
23181;SDS011;11759;51.282;6.642;2023-03-01T11:58:15;17.23;;;9.60;;
23181;SDS011;11759;51.282;6.642;2023-03-01T12:01:11;17.40;;;10.20;;
23181;SDS011;11759;51.282;6.642;2023-03-01T12:12:17;17.60;;;9.20;;
23181;SDS011;11759;51.282;6.642;2023-03-01T12:17:50;16.10;;;9.07;;
23181;SDS011;11759;51.282;6.642;2023-03-01T12:23:16;13.45;;;8.43;;
23181;SDS011;11759;51.282;6.642;2023-03-01T12:31:44;16.85;;;8.60;;
23181;SDS011;11759;51.282;6.642;2023-03-01T12:34:30;16.10;;;8.35;;
23181;SDS011;11759;51.282;6.642;2023-03-01T12:42:39;13.88;;;7.25;;
23181;SDS011;11759;51.282;6.642;2023-03-01T12:51:05;21.27;;;8.02;;
23181;SDS011;11759;51.282;6.642;2023-03-01T12:53:41;14.98;;;7.32;;
23181;SDS011;11759;51.282;6.642;2023-03-01T12:56:12;15.18;;;8.55;;
23181;SDS011;11759;51.282;6.642;2023-03-01T13:07:34;13.95;;;7.50;;
23181;SDS011;11759;51.282;6.642;2023-03-01T13:10:06;16.83;;;8.73;;
23181;SDS011;11759;51.282;6.642;2023-03-01T13:15:24;13.50;;;7.75;;
23181;SDS011;11759;51.282;6.642;2023-03-01T13:17:53;10.07;;;5.78;;
23181;SDS011;11759;51.282;6.642;2023-03-01T13:20:25;10.98;;;7.05;;
23181;SDS011;11759;51.282;6.642;2023-03-01T13:23:00;12.45;;;8.00;;
23181;SDS011;11759;51.282;6.642;2023-03-01T13:25:28;16.77;;;7.90;;
23181;SDS011;11759;51.282;6.642;2023-03-01T13:28:41;14.63;;;7.90;;
23181;SDS011;11759;51.282;6.642;2023-03-01T13:31:03;16.83;;;8.20;;
23181;SDS011;11759;51.282;6.642;2023-03-01T13:36:00;11.95;;;7.38;;
23181;SDS011;11759;51.282;6.642;2023-03-01T13:41:07;18.92;;;8.50;;
23181;SDS011;11759;51.282;6.642;2023-03-01T13:43:34;14.20;;;8.00;;
23181;SDS011;11759;51.282;6.642;2023-03-01T13:48:52;16.80;;;8.00;;
23181;SDS011;11759;51.282;6.642;2023-03-01T13:51:24;20.00;;;8.35;;
23181;SDS011;11759;51.282;6.642;2023-03-01T13:53:52;18.73;;;8.32;;
23181;SDS011;11759;51.282;6.642;2023-03-01T13:56:27;16.73;;;8.38;;
23181;SDS011;11759;51.282;6.642;2023-03-01T13:58:58;15.70;;;9.00;;
23181;SDS011;11759;51.282;6.642;2023-03-01T14:03:59;18.52;;;8.32;;
23181;SDS011;11759;51.282;6.642;2023-03-01T14:06:29;16.50;;;8.20;;
23181;SDS011;11759;51.282;6.642;2023-03-01T14:12:00;17.52;;;8.18;;
23181;SDS011;11759;51.282;6.642;2023-03-01T14:14:38;15.85;;;8.07;;
23181;SDS011;11759;51.282;6.642;2023-03-01T14:17:12;16.10;;;8.02;;
23181;SDS011;11759;51.282;6.642;2023-03-01T14:19:54;14.02;;;7.88;;
23181;SDS011;11759;51.282;6.642;2023-03-01T14:22:29;15.90;;;8.52;;
23181;SDS011;11759;51.282;6.642;2023-03-01T14:25:00;11.02;;;6.80;;
23181;SDS011;11759;51.282;6.642;2023-03-01T14:27:46;19.40;;;7.57;;
23181;SDS011;11759;51.282;6.642;2023-03-01T14:30:19;16.60;;;9.32;;
23181;SDS011;11759;51.282;6.642;2023-03-01T14:32:56;12.93;;;8.57;;
23181;SDS011;11759;51.282;6.642;2023-03-01T14:35:25;19.35;;;8.10;;
23181;SDS011;11759;51.282;6.642;2023-03-01T14:37:56;21.25;;;8.73;;
23181;SDS011;11759;51.282;6.642;2023-03-01T14:40:31;16.30;;;8.65;;
23181;SDS011;11759;51.282;6.642;2023-03-01T14:43:00;15.98;;;8.65;;
23181;SDS011;11759;51.282;6.642;2023-03-01T14:45:29;15.82;;;8.15;;
23181;SDS011;11759;51.282;6.642;2023-03-01T14:47:58;15.35;;;7.82;;
23181;SDS011;11759;51.282;6.642;2023-03-01T14:50:28;13.55;;;7.53;;
23181;SDS011;11759;51.282;6.642;2023-03-01T14:52:56;15.13;;;8.10;;
23181;SDS011;11759;51.282;6.642;2023-03-01T14:55:27;15.07;;;8.90;;
23181;SDS011;11759;51.282;6.642;2023-03-01T14:57:57;12.02;;;7.05;;
23181;SDS011;11759;51.282;6.642;2023-03-01T15:00:27;13.05;;;7.78;;
23181;SDS011;11759;51.282;6.642;2023-03-01T15:02:57;20.88;;;8.48;;
23181;SDS011;11759;51.282;6.642;2023-03-01T15:05:28;19.75;;;8.02;;
23181;SDS011;11759;51.282;6.642;2023-03-01T15:07:57;15.07;;;8.07;;
23181;SDS011;11759;51.282;6.642;2023-03-01T15:10:29;14.35;;;6.50;;
23181;SDS011;11759;51.282;6.642;2023-03-01T15:15:48;13.70;;;7.50;;
23181;SDS011;11759;51.282;6.642;2023-03-01T15:20:52;13.02;;;7.80;;
23181;SDS011;11759;51.282;6.642;2023-03-01T15:23:22;14.93;;;7.20;;
23181;SDS011;11759;51.282;6.642;2023-03-01T15:25:54;18.10;;;8.75;;
23181;SDS011;11759;51.282;6.642;2023-03-01T15:28:25;14.38;;;8.77;;
23181;SDS011;11759;51.282;6.642;2023-03-01T15:31:04;19.70;;;9.00;;
23181;SDS011;11759;51.282;6.642;2023-03-01T15:33:40;15.10;;;7.85;;
23181;SDS011;11759;51.282;6.642;2023-03-01T15:38:58;16.30;;;9.60;;
23181;SDS011;11759;51.282;6.642;2023-03-01T15:43:59;17.27;;;8.93;;
23181;SDS011;11759;51.282;6.642;2023-03-01T15:46:28;16.77;;;9.60;;
23181;SDS011;11759;51.282;6.642;2023-03-01T15:49:02;16.65;;;9.85;;
23181;SDS011;11759;51.282;6.642;2023-03-01T15:51:33;15.20;;;7.27;;
23181;SDS011;11759;51.282;6.642;2023-03-01T15:54:03;17.58;;;9.20;;
23181;SDS011;11759;51.282;6.642;2023-03-01T15:59:00;19.42;;;9.50;;
23181;SDS011;11759;51.282;6.642;2023-03-01T16:01:27;15.93;;;8.93;;
23181;SDS011;11759;51.282;6.642;2023-03-01T16:03:54;18.20;;;9.23;;
23181;SDS011;11759;51.282;6.642;2023-03-01T16:06:20;13.80;;;8.43;;
23181;SDS011;11759;51.282;6.642;2023-03-01T16:08:47;19.98;;;9.38;;
23181;SDS011;11759;51.282;6.642;2023-03-01T16:11:15;16.58;;;9.18;;
23181;SDS011;11759;51.282;6.642;2023-03-01T16:13:43;15.50;;;8.20;;
23181;SDS011;11759;51.282;6.642;2023-03-01T16:16:11;20.13;;;9.82;;
23181;SDS011;11759;51.282;6.642;2023-03-01T16:18:44;17.63;;;9.43;;
23181;SDS011;11759;51.282;6.642;2023-03-01T16:23:43;19.27;;;8.53;;
23181;SDS011;11759;51.282;6.642;2023-03-01T16:26:10;18.40;;;8.90;;
23181;SDS011;11759;51.282;6.642;2023-03-01T16:28:37;18.30;;;8.70;;
23181;SDS011;11759;51.282;6.642;2023-03-01T16:31:04;17.23;;;9.00;;
23181;SDS011;11759;51.282;6.642;2023-03-01T16:33:32;19.02;;;8.73;;
23181;SDS011;11759;51.282;6.642;2023-03-01T16:36:00;17.83;;;8.77;;
23181;SDS011;11759;51.282;6.642;2023-03-01T16:38:32;18.92;;;9.23;;
23181;SDS011;11759;51.282;6.642;2023-03-01T16:40:58;19.52;;;9.55;;
23181;SDS011;11759;51.282;6.642;2023-03-01T16:43:25;17.80;;;9.10;;
23181;SDS011;11759;51.282;6.642;2023-03-01T16:45:52;18.55;;;9.45;;
23181;SDS011;11759;51.282;6.642;2023-03-01T16:48:19;18.50;;;9.82;;
23181;SDS011;11759;51.282;6.642;2023-03-01T16:50:45;20.63;;;9.30;;
23181;SDS011;11759;51.282;6.642;2023-03-01T16:53:21;16.13;;;9.13;;